Gagetown, Michigan
Current Conditions -  °F | °C
As of 2:16 AM on Friday 28 Nov 2014 (Local Time) from KBAX Reporting Station
Broken Clouds Broken Clouds  
Wind Chill:   Ceiling: 3500
Heat Index: 19°   Visibility: 10mi
Dew Point: 11°   Wind: 8mph
Humidity: 74%   Direction: 300°WNW
Pressure: 30.29"   Gusts: NA
Location:  43.66°N, 83.24°W
Report Text: KBAX 280716Z AUTO 30007KT 10SM SCT029 BKN035 M07/M11 A3029 RMK AO2 T10751114
Loading
Personal Weather Stations






























Interactive Weather Map New forecast layout! Learn more

10-Day Weather Forecast

Advertisements
Track Severe Weather on mobile